Time;durP1;ratioP1;P1;durP2;ratioP2;P2;SDS_P1;SDS_P2;PMS_P1;PMS_P2;Temp;Humidity;BMP_temperature;BMP_pressure;BME280_temperature;BME280_humidity;BME280_pressure;Samples;Min_cycle;Max_cycle;Signal;HPM_P1;HPM_P2
2023/05/17 00:02:10;;;;;;;6.90;2.77;;;;;;;;;;5012211;28;20473;-44
2023/05/17 00:04:36;;;;;;;3.30;2.43;;;;;;;;;;5012080;28;20428;-44
2023/05/17 00:07:02;;;;;;;3.70;2.77;;;;;;;;;;5014730;28;21081;-45
2023/05/17 00:09:28;;;;;;;8.30;3.57;;;;;;;;;;5011896;28;20417;-44
2023/05/17 00:11:53;;;;;;;6.50;2.90;;;;;;;;;;5011610;28;20916;-44
2023/05/17 00:14:19;;;;;;;4.83;2.90;;;;;;;;;;5010399;28;20526;-44
2023/05/17 00:16:45;;;;;;;4.87;2.63;;;;;;;;;;5012204;28;20477;-44
2023/05/17 00:19:11;;;;;;;4.63;2.80;;;;;;;;;;5012027;28;20436;-44
2023/05/17 00:21:37;;;;;;;3.30;3.00;;;;;;;;;;5011744;28;20460;-44
2023/05/17 00:24:03;;;;;;;4.13;2.67;;;;;;;;;;5012619;28;20412;-45
2023/05/17 00:26:29;;;;;;;3.20;2.90;;;;;;;;;;5012045;28;20863;-44
2023/05/17 00:28:55;;;;;;;3.40;2.60;;;;;;;;;;5012416;28;20439;-44
2023/05/17 00:31:21;;;;;;;5.97;3.30;;;;;;;;;;5011771;28;20443;-45
2023/05/17 00:33:47;;;;;;;4.87;3.70;;;;;;;;;;5011190;28;20441;-44
2023/05/17 00:36:13;;;;;;;4.83;3.87;;;;;;;;;;5014631;28;21085;-44
2023/05/17 00:38:39;;;;;;;4.37;3.30;;;;;;;;;;5018645;28;20414;-45
2023/05/17 00:41:05;;;;;;;3.17;2.90;;;;;;;;;;5018142;28;20441;-45
2023/05/17 00:43:31;;;;;;;5.07;3.40;;;;;;;;;;5018770;28;20492;-44
2023/05/17 00:45:57;;;;;;;3.50;3.20;;;;;;;;;;5018626;28;20945;-45
2023/05/17 00:48:24;;;;;;;4.13;3.47;;;;;;;;;;5018606;28;20421;-44
2023/05/17 00:50:51;;;;;;;4.57;3.17;;;;;;;;;;5018133;28;20514;-44
2023/05/17 00:53:18;;;;;;;3.40;2.80;;;;;;;;;;5018326;28;20448;-44
2023/05/17 00:55:44;;;;;;;6.47;3.47;;;;;;;;;;5018727;28;20417;-44
2023/05/17 00:58:11;;;;;;;5.83;3.67;;;;;;;;;;5018350;28;20422;-44
2023/05/17 01:00:37;;;;;;;6.13;3.40;;;;;;;;;;5017905;28;20839;-44
2023/05/17 01:03:03;;;;;;;3.50;3.20;;;;;;;;;;5017876;28;20462;-45
2023/05/17 01:05:29;;;;;;;4.97;3.03;;;;;;;;;;5019436;28;20844;-44
2023/05/17 01:07:55;;;;;;;3.83;3.40;;;;;;;;;;5017284;28;20421;-45
2023/05/17 01:10:24;;;;;;;4.90;3.80;;;;;;;;;;5017974;28;20448;-44
2023/05/17 01:12:50;;;;;;;7.57;3.50;;;;;;;;;;5018610;28;20475;-44
2023/05/17 01:15:16;;;;;;;10.27;3.87;;;;;;;;;;5018450;28;20776;-44
2023/05/17 01:17:51;;;;;;;3.73;3.43;;;;;;;;;;5018442;28;20513;-44
2023/05/17 01:20:23;;;;;;;4.97;4.03;;;;;;;;;;5017852;28;20445;-44
2023/05/17 01:23:01;;;;;;;4.03;3.70;;;;;;;;;;5018432;28;20922;-44
2023/05/17 01:25:27;;;;;;;4.80;3.73;;;;;;;;;;5011226;28;20465;-44
2023/05/17 01:27:54;;;;;;;7.80;3.40;;;;;;;;;;5018486;28;20404;-44
2023/05/17 01:30:20;;;;;;;4.13;3.63;;;;;;;;;;5017429;28;20499;-44
2023/05/17 01:32:46;;;;;;;4.20;3.83;;;;;;;;;;5018322;28;20421;-44
2023/05/17 01:35:13;;;;;;;5.13;4.10;;;;;;;;;;5017196;28;20434;-44
2023/05/17 01:37:39;;;;;;;10.83;3.70;;;;;;;;;;5017661;28;20519;-45
2023/05/17 01:40:07;;;;;;;10.50;4.47;;;;;;;;;;5017927;28;20443;-44
2023/05/17 01:42:34;;;;;;;4.57;4.13;;;;;;;;;;5018199;28;20471;-44
2023/05/17 01:45:04;;;;;;;9.27;4.33;;;;;;;;;;5018332;28;20412;-44
2023/05/17 01:47:39;;;;;;;4.80;3.70;;;;;;;;;;5015987;28;20409;-45
2023/05/17 01:50:06;;;;;;;6.67;4.60;;;;;;;;;;5012607;28;20927;-44
2023/05/17 01:52:38;;;;;;;5.93;4.23;;;;;;;;;;5015202;28;20416;-45
2023/05/17 01:55:24;;;;;;;5.03;4.27;;;;;;;;;;5015098;28;20907;-44
2023/05/17 01:57:52;;;;;;;15.33;4.70;;;;;;;;;;5015159;28;20435;-44
2023/05/17 02:00:19;;;;;;;9.20;4.33;;;;;;;;;;5014784;28;20439;-45
2023/05/17 02:02:45;;;;;;;10.03;4.20;;;;;;;;;;5014972;28;21026;-44
2023/05/17 02:05:11;;;;;;;4.43;4.00;;;;;;;;;;5016226;28;20424;-44
2023/05/17 02:07:38;;;;;;;5.30;3.47;;;;;;;;;;5015165;28;20427;-44
2023/05/17 02:10:04;;;;;;;7.60;5.03;;;;;;;;;;5014178;28;20507;-44
2023/05/17 02:12:30;;;;;;;4.40;4.10;;;;;;;;;;5014792;28;20440;-45
2023/05/17 02:14:56;;;;;;;5.90;5.10;;;;;;;;;;5014852;28;20422;-44
2023/05/17 02:17:22;;;;;;;6.60;4.60;;;;;;;;;;5014710;28;20860;-44
2023/05/17 02:19:48;;;;;;;11.30;4.50;;;;;;;;;;5014371;28;20793;-45
2023/05/17 02:22:14;;;;;;;10.20;4.40;;;;;;;;;;5014311;28;20460;-44
2023/05/17 02:24:40;;;;;;;5.40;4.20;;;;;;;;;;5014681;28;20443;-45
2023/05/17 02:27:06;;;;;;;10.60;5.53;;;;;;;;;;5011095;28;20431;-44
2023/05/17 02:29:32;;;;;;;12.07;4.77;;;;;;;;;;5016848;28;20471;-45
2023/05/17 02:31:58;;;;;;;4.80;3.40;;;;;;;;;;5014076;28;20793;-45
2023/05/17 02:34:24;;;;;;;9.33;5.20;;;;;;;;;;5013965;28;20412;-44
2023/05/17 02:36:51;;;;;;;6.20;4.87;;;;;;;;;;5011885;28;20444;-44
2023/05/17 02:39:17;;;;;;;8.07;4.60;;;;;;;;;;5013701;28;20404;-44
2023/05/17 02:41:43;;;;;;;9.53;4.80;;;;;;;;;;5013732;28;20979;-44
2023/05/17 02:44:09;;;;;;;7.00;4.60;;;;;;;;;;5015024;28;20490;-45
2023/05/17 02:46:35;;;;;;;6.63;4.70;;;;;;;;;;5013505;28;20420;-44
2023/05/17 02:49:00;;;;;;;7.70;5.00;;;;;;;;;;5011173;28;20414;-45
2023/05/17 02:51:26;;;;;;;15.70;5.33;;;;;;;;;;5010127;28;20460;-44
2023/05/17 02:53:52;;;;;;;4.57;4.03;;;;;;;;;;5013558;28;20438;-44
2023/05/17 02:56:18;;;;;;;7.60;6.03;;;;;;;;;;5013828;28;20448;-44
2023/05/17 02:58:44;;;;;;;7.90;4.40;;;;;;;;;;5013527;28;20959;-45
2023/05/17 03:01:10;;;;;;;7.57;4.70;;;;;;;;;;5012940;28;21009;-44
2023/05/17 03:03:36;;;;;;;6.30;4.73;;;;;;;;;;5013598;28;20421;-44
2023/05/17 03:06:03;;;;;;;8.93;4.97;;;;;;;;;;5012509;28;20919;-44
2023/05/17 03:08:30;;;;;;;11.77;5.43;;;;;;;;;;5019670;28;20435;-44
2023/05/17 03:10:56;;;;;;;10.70;5.23;;;;;;;;;;5013051;28;20434;-44
2023/05/17 03:13:22;;;;;;;9.53;6.40;;;;;;;;;;5013421;28;20428;-44
2023/05/17 03:15:48;;;;;;;17.50;6.47;;;;;;;;;;5013738;28;20429;-44
2023/05/17 03:18:14;;;;;;;7.63;5.27;;;;;;;;;;5013354;28;20420;-45
2023/05/17 03:20:40;;;;;;;14.77;5.77;;;;;;;;;;5013030;28;20989;-45
2023/05/17 03:23:06;;;;;;;8.13;5.17;;;;;;;;;;5013092;28;20821;-45
2023/05/17 03:25:32;;;;;;;6.37;4.73;;;;;;;;;;5013527;28;20396;-44
2023/05/17 03:27:58;;;;;;;6.47;4.93;;;;;;;;;;5013236;28;20895;-44
2023/05/17 03:30:23;;;;;;;9.37;5.30;;;;;;;;;;5012817;28;20456;-45
2023/05/17 03:32:49;;;;;;;9.20;6.00;;;;;;;;;;5013257;28;20451;-45
2023/05/17 03:35:15;;;;;;;9.20;5.97;;;;;;;;;;5012905;28;20443;-45
2023/05/17 03:37:41;;;;;;;6.50;5.50;;;;;;;;;;5011974;28;20443;-44
2023/05/17 03:40:07;;;;;;;7.10;4.93;;;;;;;;;;5011874;28;20487;-44
2023/05/17 03:42:33;;;;;;;6.10;5.10;;;;;;;;;;5012995;28;20470;-44
2023/05/17 03:45:00;;;;;;;10.23;5.90;;;;;;;;;;5015464;28;20412;-45
2023/05/17 03:47:26;;;;;;;9.30;5.63;;;;;;;;;;5012869;28;20412;-44
2023/05/17 03:49:52;;;;;;;12.60;5.67;;;;;;;;;;5010934;28;20448;-44
2023/05/17 03:52:17;;;;;;;7.33;5.93;;;;;;;;;;5012855;28;20421;-45
2023/05/17 03:54:43;;;;;;;16.23;5.73;;;;;;;;;;5012689;28;20425;-45
2023/05/17 03:57:09;;;;;;;8.77;5.60;;;;;;;;;;5012590;28;20989;-44
2023/05/17 03:59:35;;;;;;;21.50;6.00;;;;;;;;;;5012292;28;20495;-45
2023/05/17 04:02:01;;;;;;;12.90;6.13;;;;;;;;;;5012552;28;20464;-45
2023/05/17 04:04:27;;;;;;;6.40;5.10;;;;;;;;;;5012652;28;20413;-44
2023/05/17 04:06:53;;;;;;;8.43;5.93;;;;;;;;;;5011065;28;20972;-44
2023/05/17 04:09:19;;;;;;;16.10;6.00;;;;;;;;;;5012312;28;20411;-45
2023/05/17 04:11:45;;;;;;;8.87;5.77;;;;;;;;;;5011417;28;20420;-45
2023/05/17 04:14:11;;;;;;;8.23;5.43;;;;;;;;;;5012568;28;20421;-44
2023/05/17 04:16:37;;;;;;;8.97;5.93;;;;;;;;;;5012221;28;20442;-45
2023/05/17 04:19:03;;;;;;;13.80;6.47;;;;;;;;;;5011182;28;20422;-45
2023/05/17 04:21:30;;;;;;;10.90;6.40;;;;;;;;;;5010783;28;21015;-44
2023/05/17 04:23:56;;;;;;;8.30;6.00;;;;;;;;;;5012355;28;20418;-45
2023/05/17 04:26:22;;;;;;;10.47;6.20;;;;;;;;;;5011114;28;20435;-45
2023/05/17 04:28:47;;;;;;;14.07;6.70;;;;;;;;;;5012344;28;20453;-45
2023/05/17 04:31:18;;;;;;;9.90;5.90;;;;;;;;;;5011943;28;20441;-45
2023/05/17 04:33:44;;;;;;;16.13;5.30;;;;;;;;;;5012522;28;20460;-45
2023/05/17 04:36:10;;;;;;;13.20;5.97;;;;;;;;;;5010331;28;20473;-45
2023/05/17 04:38:36;;;;;;;7.70;6.37;;;;;;;;;;5011399;28;20437;-44
2023/05/17 04:41:06;;;;;;;11.97;6.60;;;;;;;;;;5011824;28;20427;-45
2023/05/17 04:43:32;;;;;;;10.03;6.23;;;;;;;;;;5012196;28;20407;-44
2023/05/17 04:45:58;;;;;;;12.13;5.73;;;;;;;;;;5014780;28;20426;-45
2023/05/17 04:48:25;;;;;;;10.83;6.87;;;;;;;;;;5012027;28;20490;-45
2023/05/17 04:50:52;;;;;;;16.67;7.40;;;;;;;;;;5011587;28;20430;-45
2023/05/17 04:53:18;;;;;;;13.90;8.13;;;;;;;;;;5011923;28;20485;-45
2023/05/17 04:55:44;;;;;;;6.37;5.77;;;;;;;;;;5007692;28;20535;-45
2023/05/17 04:58:10;;;;;;;14.73;7.23;;;;;;;;;;5010665;28;20391;-44
2023/05/17 05:00:36;;;;;;;13.73;6.80;;;;;;;;;;5011576;28;20839;-45
2023/05/17 05:03:03;;;;;;;15.93;7.00;;;;;;;;;;5011862;28;20555;-45
2023/05/17 05:05:30;;;;;;;16.03;7.20;;;;;;;;;;5010897;28;20415;-45
2023/05/17 05:07:56;;;;;;;13.23;6.57;;;;;;;;;;5011031;28;20922;-45
2023/05/17 05:10:23;;;;;;;12.57;7.17;;;;;;;;;;5011148;28;20430;-44
2023/05/17 05:12:49;;;;;;;9.80;6.50;;;;;;;;;;5011494;28;20427;-45
2023/05/17 05:15:15;;;;;;;26.03;9.20;;;;;;;;;;5011653;28;20407;-46
2023/05/17 05:17:41;;;;;;;21.43;6.70;;;;;;;;;;5011636;28;20415;-45
2023/05/17 05:20:08;;;;;;;12.27;7.80;;;;;;;;;;5011216;28;20477;-45
2023/05/17 05:22:34;;;;;;;16.47;7.30;;;;;;;;;;5012182;28;20961;-45
2023/05/17 05:25:00;;;;;;;12.80;6.70;;;;;;;;;;5015408;28;20555;-45
2023/05/17 05:27:26;;;;;;;12.10;6.97;;;;;;;;;;5015619;28;20929;-44
2023/05/17 05:29:52;;;;;;;11.40;6.17;;;;;;;;;;5014763;28;20489;-44
2023/05/17 05:32:18;;;;;;;21.53;6.37;;;;;;;;;;5015191;28;20420;-44
2023/05/17 05:34:44;;;;;;;10.23;5.50;;;;;;;;;;5014022;28;20438;-45
2023/05/17 05:37:10;;;;;;;17.67;5.90;;;;;;;;;;5015387;28;20462;-45
2023/05/17 05:39:36;;;;;;;16.53;6.47;;;;;;;;;;5014865;28;20932;-44
2023/05/17 05:42:02;;;;;;;11.63;5.13;;;;;;;;;;5015202;28;20831;-45
2023/05/17 05:44:28;;;;;;;13.83;6.33;;;;;;;;;;5017705;28;20415;-45
2023/05/17 05:46:54;;;;;;;16.17;5.70;;;;;;;;;;5014444;28;20406;-45
2023/05/17 05:49:20;;;;;;;10.80;5.13;;;;;;;;;;5013830;28;20415;-45
2023/05/17 05:51:46;;;;;;;12.60;5.43;;;;;;;;;;5014972;28;20415;-45
2023/05/17 05:54:12;;;;;;;12.20;5.70;;;;;;;;;;5015002;28;20482;-45
2023/05/17 05:56:38;;;;;;;18.03;5.87;;;;;;;;;;5015087;28;20416;-45
2023/05/17 05:59:04;;;;;;;12.37;5.00;;;;;;;;;;5014770;28;20424;-45
2023/05/17 06:01:30;;;;;;;9.33;4.90;;;;;;;;;;5014549;28;20519;-45
2023/05/17 06:03:56;;;;;;;10.40;5.00;;;;;;;;;;5013069;28;20481;-45
2023/05/17 06:06:22;;;;;;;8.30;4.17;;;;;;;;;;5014031;28;20821;-45
2023/05/17 06:08:48;;;;;;;8.13;4.27;;;;;;;;;;5011695;28;20910;-45
2023/05/17 06:11:14;;;;;;;7.57;4.60;;;;;;;;;;5016828;28;20819;-44
2023/05/17 06:13:40;;;;;;;22.83;5.47;;;;;;;;;;5014329;28;21005;-44
2023/05/17 06:16:06;;;;;;;9.60;4.13;;;;;;;;;;5017290;28;20434;-45
2023/05/17 06:18:33;;;;;;;15.80;4.10;;;;;;;;;;5014275;28;20824;-45
2023/05/17 06:20:59;;;;;;;9.07;3.97;;;;;;;;;;5013858;28;20497;-45
2023/05/17 06:23:25;;;;;;;13.87;3.80;;;;;;;;;;5014418;28;20962;-45
2023/05/17 06:25:51;;;;;;;14.50;3.83;;;;;;;;;;5014384;28;20426;-44
2023/05/17 06:28:17;;;;;;;8.70;3.80;;;;;;;;;;5016058;28;20775;-45
2023/05/17 06:30:44;;;;;;;11.17;3.80;;;;;;;;;;5013558;28;20427;-45
2023/05/17 06:33:10;;;;;;;6.03;3.10;;;;;;;;;;5013749;28;20420;-45
2023/05/17 06:35:37;;;;;;;13.17;3.47;;;;;;;;;;5012977;28;20439;-45
2023/05/17 06:38:03;;;;;;;11.30;3.73;;;;;;;;;;5014154;28;20415;-44
2023/05/17 06:40:29;;;;;;;6.77;3.30;;;;;;;;;;5013587;28;20442;-44
2023/05/17 06:42:55;;;;;;;9.67;3.57;;;;;;;;;;5013771;28;20889;-45
2023/05/17 06:45:21;;;;;;;8.80;3.10;;;;;;;;;;5005877;28;20501;-45
2023/05/17 06:47:47;;;;;;;8.87;2.87;;;;;;;;;;5013783;28;20561;-44
2023/05/17 06:50:13;;;;;;;5.13;2.83;;;;;;;;;;5013151;28;20435;-45
2023/05/17 06:52:39;;;;;;;11.50;4.10;;;;;;;;;;5013812;28;20411;-45
2023/05/17 06:55:06;;;;;;;16.83;5.80;;;;;;;;;;5013740;28;20415;-45
2023/05/17 06:57:32;;;;;;;7.83;3.73;;;;;;;;;;5012997;28;20495;-45
2023/05/17 06:59:58;;;;;;;5.90;2.90;;;;;;;;;;5012466;28;20993;-46
2023/05/17 07:02:24;;;;;;;9.93;3.20;;;;;;;;;;5012701;28;20464;-45
2023/05/17 07:04:50;;;;;;;3.23;2.80;;;;;;;;;;5017053;28;20867;-45
2023/05/17 07:07:16;;;;;;;19.97;4.53;;;;;;;;;;5012471;28;20494;-45
2023/05/17 07:09:42;;;;;;;14.97;3.33;;;;;;;;;;5012864;28;20489;-45
2023/05/17 07:12:08;;;;;;;6.03;2.93;;;;;;;;;;5013052;28;20830;-45
2023/05/17 07:14:34;;;;;;;17.97;3.47;;;;;;;;;;5013205;28;20863;-45
2023/05/17 07:17:00;;;;;;;9.13;3.03;;;;;;;;;;5013253;28;20494;-45
2023/05/17 07:19:26;;;;;;;4.73;3.17;;;;;;;;;;5012787;28;20504;-44
2023/05/17 07:21:52;;;;;;;10.30;3.20;;;;;;;;;;5013023;28;20907;-44
2023/05/17 07:24:18;;;;;;;15.77;2.70;;;;;;;;;;5013062;28;20408;-47
2023/05/17 07:26:44;;;;;;;13.37;2.90;;;;;;;;;;5013120;28;20411;-45
2023/05/17 07:29:11;;;;;;;17.10;2.97;;;;;;;;;;5012642;28;20500;-45
2023/05/17 07:31:37;;;;;;;8.43;2.90;;;;;;;;;;5012728;28;20439;-45
2023/05/17 07:34:04;;;;;;;9.00;2.93;;;;;;;;;;5011889;28;20462;-45
2023/05/17 07:36:30;;;;;;;7.57;3.30;;;;;;;;;;5012183;28;20566;-45
2023/05/17 07:38:56;;;;;;;10.93;2.63;;;;;;;;;;5012937;28;20423;-45
2023/05/17 07:41:22;;;;;;;20.80;3.40;;;;;;;;;;5012335;28;20445;-45
2023/05/17 07:43:49;;;;;;;15.83;3.57;;;;;;;;;;5012643;28;20439;-45
2023/05/17 07:46:15;;;;;;;9.23;3.17;;;;;;;;;;5011943;28;20490;-45
2023/05/17 07:48:41;;;;;;;8.63;3.23;;;;;;;;;;5010711;28;20983;-45
2023/05/17 07:51:07;;;;;;;3.63;2.33;;;;;;;;;;5012615;28;20490;-45
2023/05/17 07:53:33;;;;;;;7.27;2.77;;;;;;;;;;5009098;28;20431;-45
2023/05/17 07:56:00;;;;;;;6.33;2.40;;;;;;;;;;5008723;28;20415;-45
2023/05/17 07:58:26;;;;;;;16.17;2.60;;;;;;;;;;5007373;28;20454;-45
2023/05/17 08:00:52;;;;;;;9.23;2.60;;;;;;;;;;5011954;28;20445;-46
2023/05/17 08:03:18;;;;;;;7.50;2.63;;;;;;;;;;5011177;28;20472;-45
2023/05/17 08:05:44;;;;;;;10.77;2.80;;;;;;;;;;5009485;28;20497;-45
2023/05/17 08:08:10;;;;;;;3.33;2.07;;;;;;;;;;5010860;28;20407;-46
2023/05/17 08:10:36;;;;;;;10.00;2.30;;;;;;;;;;5010949;28;20438;-45
2023/05/17 08:13:03;;;;;;;7.70;2.50;;;;;;;;;;5011937;28;20979;-46
2023/05/17 08:15:29;;;;;;;5.53;2.50;;;;;;;;;;5012108;28;20411;-45
2023/05/17 08:17:55;;;;;;;5.93;2.20;;;;;;;;;;5012100;28;20452;-45
2023/05/17 08:20:21;;;;;;;10.17;2.50;;;;;;;;;;5011759;28;20920;-45
2023/05/17 08:22:47;;;;;;;7.83;2.30;;;;;;;;;;5009811;28;21047;-45
2023/05/17 08:25:13;;;;;;;6.90;2.07;;;;;;;;;;5012007;28;20387;-45
2023/05/17 08:27:40;;;;;;;6.60;1.93;;;;;;;;;;5011980;28;20507;-45
2023/05/17 08:30:06;;;;;;;10.57;2.10;;;;;;;;;;5011715;28;20424;-45
2023/05/17 08:32:32;;;;;;;13.17;2.60;;;;;;;;;;5011982;28;20408;-45
2023/05/17 08:34:58;;;;;;;8.10;2.30;;;;;;;;;;5012060;28;20480;-45
2023/05/17 08:37:24;;;;;;;5.67;2.13;;;;;;;;;;5012058;28;20398;-45
2023/05/17 08:39:50;;;;;;;9.00;2.20;;;;;;;;;;5011456;28;20439;-47
2023/05/17 08:42:21;;;;;;;8.53;2.50;;;;;;;;;;5012124;28;20464;-45
2023/05/17 08:44:47;;;;;;;7.47;2.53;;;;;;;;;;5012105;28;20892;-46
2023/05/17 08:47:24;;;;;;;3.33;1.83;;;;;;;;;;5011785;28;20415;-45
2023/05/17 08:49:56;;;;;;;7.60;3.60;;;;;;;;;;5011430;28;20431;-46
2023/05/17 08:52:22;;;;;;;7.50;3.87;;;;;;;;;;5011777;28;20915;-47
2023/05/17 08:54:48;;;;;;;4.70;2.77;;;;;;;;;;5009874;28;20485;-45
2023/05/17 08:57:16;;;;;;;6.60;2.20;;;;;;;;;;5013305;28;20470;-46
2023/05/17 08:59:43;;;;;;;10.53;2.07;;;;;;;;;;5015146;28;20585;-46
2023/05/17 09:02:10;;;;;;;8.57;2.30;;;;;;;;;;5015453;28;20520;-45
2023/05/17 09:04:36;;;;;;;6.57;2.87;;;;;;;;;;5021420;28;20416;-45
2023/05/17 09:07:02;;;;;;;7.27;2.30;;;;;;;;;;5015452;28;20407;-46
2023/05/17 09:09:28;;;;;;;5.63;2.30;;;;;;;;;;5015067;28;20499;-45
2023/05/17 09:11:54;;;;;;;7.33;2.43;;;;;;;;;;5015376;28;20417;-45
2023/05/17 09:14:20;;;;;;;7.03;2.40;;;;;;;;;;5015355;28;20426;-46
2023/05/17 09:16:47;;;;;;;7.30;2.40;;;;;;;;;;5015287;28;20427;-45
2023/05/17 09:19:16;;;;;;;8.97;2.80;;;;;;;;;;5015222;28;21112;-46
2023/05/17 09:21:46;;;;;;;4.50;1.50;;;;;;;;;;5015024;28;20466;-46
2023/05/17 09:24:12;;;;;;;6.70;2.37;;;;;;;;;;5013262;28;20433;-45
2023/05/17 09:26:39;;;;;;;5.40;2.00;;;;;;;;;;5014397;28;20846;-45
2023/05/17 09:29:11;;;;;;;7.67;2.33;;;;;;;;;;5015023;28;20575;-45
2023/05/17 09:31:37;;;;;;;5.03;1.80;;;;;;;;;;5014945;28;20446;-46
2023/05/17 09:34:05;;;;;;;5.50;2.07;;;;;;;;;;5014855;28;20454;-45
2023/05/17 09:36:55;;;;;;;14.63;3.75;;;;;;;;;;5780220;22;21083;-43
2023/05/17 09:39:22;;;;;;;5.77;2.40;;;;;;;;;;5009924;28;20210;-44
2023/05/17 09:41:49;;;;;;;7.47;2.23;;;;;;;;;;5014102;28;20829;-43
2023/05/17 09:44:15;;;;;;;12.33;2.57;;;;;;;;;;5014273;28;20445;-43
2023/05/17 09:46:46;;;;;;;5.10;2.90;;;;;;;;;;5013542;28;20450;-44
2023/05/17 09:49:12;;;;;;;6.80;2.70;;;;;;;;;;5014740;28;20746;-44
2023/05/17 09:51:43;;;;;;;4.30;2.03;;;;;;;;;;5014829;28;20531;-44
2023/05/17 09:54:10;;;;;;;8.43;2.47;;;;;;;;;;5014796;28;20420;-44
2023/05/17 09:56:36;;;;;;;17.07;3.00;;;;;;;;;;5015251;28;20509;-44
2023/05/17 09:59:03;;;;;;;4.97;1.90;;;;;;;;;;5013256;28;20421;-43
2023/05/17 10:01:30;;;;;;;9.90;2.47;;;;;;;;;;5013742;28;20409;-43
2023/05/17 10:04:01;;;;;;;13.50;2.30;;;;;;;;;;5014669;28;20440;-43
2023/05/17 10:06:28;;;;;;;6.80;1.97;;;;;;;;;;5014814;28;20429;-44
2023/05/17 10:08:55;;;;;;;9.37;2.43;;;;;;;;;;5014034;28;20897;-43
2023/05/17 10:11:24;;;;;;;5.70;2.10;;;;;;;;;;5014869;28;20441;-43
2023/05/17 10:13:55;;;;;;;4.63;1.83;;;;;;;;;;5014532;28;20419;-44
2023/05/17 10:16:22;;;;;;;9.60;2.37;;;;;;;;;;5014321;28;21034;-44
2023/05/17 10:18:48;;;;;;;6.00;1.90;;;;;;;;;;5013886;28;20427;-43
2023/05/17 10:21:15;;;;;;;9.00;2.10;;;;;;;;;;5025531;28;20421;-44
2023/05/17 10:23:43;;;;;;;9.13;2.80;;;;;;;;;;4998889;28;21029;-44
2023/05/17 10:26:09;;;;;;;6.30;2.30;;;;;;;;;;5011710;28;20932;-44
2023/05/17 10:28:36;;;;;;;17.67;3.23;;;;;;;;;;5012990;28;20489;-44
2023/05/17 10:31:03;;;;;;;5.00;1.83;;;;;;;;;;5013432;28;20411;-44
2023/05/17 10:33:31;;;;;;;7.20;1.83;;;;;;;;;;5016886;28;20421;-44
2023/05/17 10:35:58;;;;;;;4.27;1.60;;;;;;;;;;5013493;28;20495;-44
2023/05/17 10:38:24;;;;;;;7.40;2.20;;;;;;;;;;5013827;28;20416;-44
2023/05/17 10:40:51;;;;;;;6.23;2.30;;;;;;;;;;5013624;28;20461;-44
2023/05/17 10:43:18;;;;;;;7.73;2.30;;;;;;;;;;5013641;28;20435;-44
2023/05/17 10:45:45;;;;;;;9.30;2.50;;;;;;;;;;5013603;28;20800;-44
2023/05/17 10:48:15;;;;;;;4.97;2.10;;;;;;;;;;5012719;28;20455;-44
2023/05/17 10:50:45;;;;;;;5.87;2.10;;;;;;;;;;5000645;28;20430;-44
2023/05/17 10:53:11;;;;;;;4.90;1.97;;;;;;;;;;5013464;28;20415;-45
2023/05/17 10:55:37;;;;;;;6.33;1.83;;;;;;;;;;5013473;28;20502;-44
2023/05/17 10:58:16;;;;;;;10.10;2.33;;;;;;;;;;5012515;28;20522;-44
2023/05/17 11:00:47;;;;;;;5.97;2.87;;;;;;;;;;5004041;28;20445;-44
2023/05/17 11:03:14;;;;;;;4.80;2.30;;;;;;;;;;5012225;28;20565;-44
2023/05/17 11:05:42;;;;;;;4.60;1.60;;;;;;;;;;5013219;28;20501;-44
2023/05/17 11:08:16;;;;;;;6.50;2.50;;;;;;;;;;5011942;28;20424;-44
2023/05/17 11:11:00;;;;;;;5.53;2.00;;;;;;;;;;5009109;28;20419;-44
2023/05/17 11:13:26;;;;;;;5.60;1.90;;;;;;;;;;5013246;28;20430;-44
2023/05/17 11:16:07;;;;;;;9.40;2.10;;;;;;;;;;5013103;28;20986;-45
2023/05/17 11:18:45;;;;;;;2.80;1.83;;;;;;;;;;5009389;28;20427;-44
2023/05/17 11:21:14;;;;;;;5.03;1.97;;;;;;;;;;5011807;28;20509;-44
2023/05/17 11:23:40;;;;;;;2.87;1.83;;;;;;;;;;5013067;28;20549;-44
2023/05/17 11:26:22;;;;;;;8.93;2.03;;;;;;;;;;5012807;28;20511;-44
2023/05/17 11:28:58;;;;;;;6.87;2.10;;;;;;;;;;5012983;28;20410;-44
2023/05/17 11:31:31;;;;;;;3.93;1.87;;;;;;;;;;5016622;28;20995;-45
2023/05/17 11:33:58;;;;;;;3.93;2.10;;;;;;;;;;5025721;28;20411;-45
2023/05/17 11:36:24;;;;;;;2.03;1.40;;;;;;;;;;5012463;28;20454;-45
2023/05/17 11:39:09;;;;;;;9.93;3.93;;;;;;;;;;5012737;28;20765;-45
2023/05/17 11:41:37;;;;;;;6.27;3.17;;;;;;;;;;5012573;28;20822;-45
2023/05/17 11:44:03;;;;;;;37.00;24.50;;;;;;;;;;5012758;28;20403;-45
2023/05/17 11:46:31;;;;;;;10.80;5.67;;;;;;;;;;5012407;28;20431;-45
2023/05/17 11:48:57;;;;;;;5.00;1.90;;;;;;;;;;5012056;28;20427;-44
2023/05/17 11:51:23;;;;;;;3.93;2.10;;;;;;;;;;5012033;28;20463;-44
2023/05/17 11:53:49;;;;;;;5.70;1.73;;;;;;;;;;5012688;28;20416;-44
2023/05/17 11:56:16;;;;;;;8.40;2.00;;;;;;;;;;5012028;28;20530;-44
2023/05/17 11:58:43;;;;;;;4.20;2.10;;;;;;;;;;5012519;28;20418;-45
2023/05/17 12:01:09;;;;;;;3.20;1.70;;;;;;;;;;5012492;28;20414;-45
2023/05/17 12:03:35;;;;;;;6.37;3.90;;;;;;;;;;5012399;28;20562;-45
2023/05/17 12:06:03;;;;;;;8.83;4.77;;;;;;;;;;5012043;28;20407;-45
2023/05/17 12:08:30;;;;;;;4.83;2.93;;;;;;;;;;5012281;28;20759;-45
2023/05/17 12:10:57;;;;;;;5.33;2.17;;;;;;;;;;5012167;28;20478;-45
2023/05/17 12:13:23;;;;;;;7.10;1.80;;;;;;;;;;5012241;28;20423;-45
2023/05/17 12:15:56;;;;;;;4.73;1.80;;;;;;;;;;5012154;28;20418;-45
2023/05/17 12:18:22;;;;;;;4.00;1.87;;;;;;;;;;5012136;28;20411;-45
2023/05/17 12:20:59;;;;;;;2.10;1.60;;;;;;;;;;5004598;28;20438;-45
2023/05/17 12:23:26;;;;;;;6.90;2.57;;;;;;;;;;5012088;28;20529;-45
2023/05/17 12:26:00;;;;;;;4.00;2.57;;;;;;;;;;5011991;28;20415;-44
2023/05/17 12:28:26;;;;;;;5.70;1.83;;;;;;;;;;5012129;28;20422;-45
2023/05/17 12:30:53;;;;;;;10.20;5.83;;;;;;;;;;5012097;28;20429;-45
2023/05/17 12:33:19;;;;;;;5.90;1.60;;;;;;;;;;5019125;28;20418;-45
2023/05/17 12:35:45;;;;;;;3.60;1.50;;;;;;;;;;5010833;28;20442;-45
2023/05/17 12:38:12;;;;;;;2.40;1.60;;;;;;;;;;5011329;28;20442;-45
2023/05/17 12:40:39;;;;;;;5.03;2.00;;;;;;;;;;5011036;28;20423;-45
2023/05/17 12:43:05;;;;;;;5.80;1.80;;;;;;;;;;5011474;28;20570;-44
2023/05/17 12:45:32;;;;;;;5.83;1.90;;;;;;;;;;5011629;28;20907;-45
2023/05/17 12:47:59;;;;;;;7.33;1.83;;;;;;;;;;5009996;28;20437;-45
2023/05/17 12:50:29;;;;;;;2.53;1.40;;;;;;;;;;5005541;28;20416;-45
2023/05/17 12:52:56;;;;;;;5.93;1.80;;;;;;;;;;5009942;28;20435;-45
2023/05/17 12:55:22;;;;;;;2.97;1.80;;;;;;;;;;5012900;28;20884;-43
2023/05/17 12:57:49;;;;;;;3.40;2.03;;;;;;;;;;5011365;28;20818;-44
2023/05/17 13:00:15;;;;;;;4.13;1.60;;;;;;;;;;5011243;28;20442;-44
2023/05/17 13:02:41;;;;;;;5.17;1.60;;;;;;;;;;5010635;28;20470;-44
2023/05/17 13:05:14;;;;;;;3.90;1.70;;;;;;;;;;5011333;28;20407;-45
2023/05/17 13:07:40;;;;;;;4.20;1.80;;;;;;;;;;5010219;28;20446;-44
2023/05/17 13:10:18;;;;;;;5.33;1.67;;;;;;;;;;5011570;28;20418;-43
2023/05/17 13:12:53;;;;;;;4.00;1.60;;;;;;;;;;5011475;28;20423;-44
2023/05/17 13:15:19;;;;;;;8.70;1.87;;;;;;;;;;5011527;28;20417;-45
2023/05/17 13:17:48;;;;;;;7.40;1.80;;;;;;;;;;5010910;28;20446;-44
2023/05/17 13:20:15;;;;;;;3.87;1.70;;;;;;;;;;5010680;28;20434;-44
2023/05/17 13:22:50;;;;;;;5.53;2.20;;;;;;;;;;5011329;28;20527;-43
2023/05/17 13:25:16;;;;;;;4.77;3.10;;;;;;;;;;5011479;28;20414;-44
2023/05/17 13:27:45;;;;;;;6.40;2.60;;;;;;;;;;5011044;28;20438;-44
2023/05/17 13:30:11;;;;;;;3.27;1.40;;;;;;;;;;5011271;28;20497;-44
2023/05/17 13:32:37;;;;;;;3.23;1.40;;;;;;;;;;5015786;28;20902;-44
2023/05/17 13:35:04;;;;;;;5.37;1.80;;;;;;;;;;5011366;28;20413;-45
2023/05/17 13:37:30;;;;;;;2.97;1.83;;;;;;;;;;5010898;28;20438;-44
2023/05/17 13:39:56;;;;;;;3.13;1.60;;;;;;;;;;5011285;28;20445;-44
2023/05/17 13:42:22;;;;;;;3.97;1.43;;;;;;;;;;5011186;28;20498;-44
2023/05/17 13:44:48;;;;;;;4.10;1.70;;;;;;;;;;5013411;28;21271;-44
2023/05/17 13:47:14;;;;;;;3.53;1.90;;;;;;;;;;5013508;28;20449;-43
2023/05/17 13:49:40;;;;;;;2.30;1.30;;;;;;;;;;5014751;28;20924;-44
2023/05/17 13:52:07;;;;;;;3.00;1.67;;;;;;;;;;5014848;28;20465;-44
2023/05/17 13:54:33;;;;;;;2.83;1.60;;;;;;;;;;5014539;28;20789;-44
2023/05/17 13:57:00;;;;;;;3.63;1.53;;;;;;;;;;5014133;28;21010;-44
2023/05/17 13:59:26;;;;;;;5.53;1.40;;;;;;;;;;5014510;28;20891;-44
2023/05/17 14:01:52;;;;;;;2.60;1.80;;;;;;;;;;5014520;28;20461;-44
2023/05/17 14:04:20;;;;;;;7.60;1.50;;;;;;;;;;5014516;28;20411;-44
2023/05/17 14:06:46;;;;;;;4.97;2.20;;;;;;;;;;5014119;28;20431;-44
2023/05/17 14:09:12;;;;;;;5.97;2.23;;;;;;;;;;5014442;28;20411;-45
2023/05/17 14:11:39;;;;;;;5.87;2.23;;;;;;;;;;5014202;28;20415;-44
2023/05/17 14:14:04;;;;;;;5.53;2.60;;;;;;;;;;5014200;28;20419;-43
2023/05/17 14:16:30;;;;;;;4.70;1.93;;;;;;;;;;5012832;28;20473;-44
2023/05/17 14:18:57;;;;;;;6.20;1.90;;;;;;;;;;5006611;28;20226;-45
2023/05/17 14:21:23;;;;;;;3.60;1.90;;;;;;;;;;5013409;28;20502;-45
2023/05/17 14:23:49;;;;;;;1.80;1.30;;;;;;;;;;5014662;28;20481;-45
2023/05/17 14:26:16;;;;;;;5.47;1.70;;;;;;;;;;5013831;28;21080;-45
2023/05/17 14:28:42;;;;;;;3.87;2.00;;;;;;;;;;5014339;28;20415;-45
2023/05/17 14:31:08;;;;;;;6.37;1.93;;;;;;;;;;5016151;28;20446;-45
2023/05/17 14:33:34;;;;;;;7.30;2.10;;;;;;;;;;5023896;28;20915;-44
2023/05/17 14:36:01;;;;;;;4.90;2.00;;;;;;;;;;5013317;28;20415;-45
2023/05/17 14:38:27;;;;;;;7.60;2.10;;;;;;;;;;5013861;28;20419;-45
2023/05/17 14:40:52;;;;;;;4.07;2.00;;;;;;;;;;5013526;28;20430;-45